Darstellungsparameter: Aktuell verwendete Einstellungen:
Skalierung der Graphiken ... ?
xyx+y,   Skalierungsfaktor:      Skalierung: Modus: x, Faktor: 1
Darstellungszeitraum ... ?
Vom - - bis: - -   Zeitraum: 02.05.2015 - 02.05.2015
Min/Max/Avg-Anzeige ... ?
Zeige MMA aktuell
Zeige MMA Monat
Zeige MMA alles
Zeige --A aktuell
Zeige --A Monat
Zeige --A alles
Keine MMA-Anzeige
MMA:
Average (ber die Originaldaten)
MMA-Basis: 02.05.2015 - 02.05.2015
Quicknavigation für Darstellung... ?
Tage:      1T, 2T, 3T, 5T -1T -2T -3T -5T +1T +2T +3T +5T
Wochen: 1W, 2W, 3W -1W -2W -3W +1W +2W +3W
Monate: 1M, 3M, 6M -1M -3M -6M +1M +3M +6M
Jahre:    1J, 3J, 5J, 10J -1J -3J -5J -10J +1J +3J +5J +10J
Nutze für die Darstellung ... ?
Originaldaten oder Mittelwerte auf ...
Stundenbasis Tagesbasis Wochenbasis
Monatsbasis Jahresbasis      Datenbasis: Original-Daten
Darstellen als:
Statistik (Auto) Statistik J:M      Darstellung:
Zur Graphik,    zurück zur Übersicht aller Sensoren.
 
Tabellarische Datenbersicht: ?
 
Sensor: Nr:Datum:Temp:Abs-Feuchte:Windchill:Wind:
Aussen-T/F 1 02-05-2015 00:00:00 5.8 C 6.3 g/m*3 5.8 C 0 km/h
2 02-05-2015 00:05:00 5.8 C 6.3 g/m*3 5.8 C 0 km/h
3 02-05-2015 00:10:00 5.7 C 6.26 g/m*3 5.7 C 0 km/h
4 02-05-2015 00:15:00 5.6 C 6.22 g/m*3 5.6 C 0 km/h
5 02-05-2015 00:20:00 5.7 C 6.33 g/m*3 5.7 C 0 km/h
6 02-05-2015 00:25:00 5.7 C 6.4 g/m*3 5.7 C 0 km/h
7 02-05-2015 00:30:00 5.8 C 6.45 g/m*3 5.8 C 0 km/h
8 02-05-2015 00:35:00 5.8 C 6.38 g/m*3 5.8 C 0 km/h
9 02-05-2015 00:40:00 5.8 C 6.38 g/m*3 5.8 C 0 km/h
10 02-05-2015 00:45:00 5.7 C 6.33 g/m*3 5.7 C 0 km/h
11 02-05-2015 00:50:00 5.7 C 6.33 g/m*3 5.7 C 0 km/h
12 02-05-2015 00:55:00 5.6 C 6.29 g/m*3 5.6 C 0 km/h
13 02-05-2015 01:00:00 5.6 C 6.29 g/m*3 5.6 C 0 km/h
14 02-05-2015 01:05:00 5.6 C 6.36 g/m*3 5.6 C 0 km/h
15 02-05-2015 01:10:00 5.6 C 6.36 g/m*3 5.6 C 0 km/h
16 02-05-2015 01:15:00 5.6 C 6.36 g/m*3 5.6 C 0 km/h
17 02-05-2015 01:20:00 5.6 C 6.43 g/m*3 5.6 C 0 km/h
18 02-05-2015 01:25:00 5.6 C 6.43 g/m*3 5.6 C 0 km/h
19 02-05-2015 01:30:00 5.5 C 6.32 g/m*3 5.5 C 0 km/h
20 02-05-2015 01:35:00 5.4 C 6.28 g/m*3 5.4 C 0 km/h
21 02-05-2015 01:40:00 5.3 C 6.24 g/m*3 5.3 C 0 km/h
22 02-05-2015 01:45:00 5.2 C 6.2 g/m*3 5.2 C 0 km/h
23 02-05-2015 01:50:00 5.1 C 6.22 g/m*3 5.1 C 0 km/h
24 02-05-2015 01:55:00 5.1 C 6.22 g/m*3 5.1 C 0 km/h
25 02-05-2015 02:00:00 5 C 6.25 g/m*3 5 C 0 km/h
Sensor: Nr:Datum:Temp:Abs-Feuchte:Windchill:Wind:
Aussen-T/F 26 02-05-2015 02:05:00 4.9 C 6.21 g/m*3 4.9 C 0 km/h
27 02-05-2015 02:10:00 4.9 C 6.21 g/m*3 4.9 C 0 km/h
28 02-05-2015 02:15:00 4.8 C 6.17 g/m*3 4.8 C 0 km/h
29 02-05-2015 02:20:00 4.8 C 6.17 g/m*3 4.8 C 0 km/h
30 02-05-2015 02:25:00 4.7 C 6.13 g/m*3 4.7 C 0 km/h
31 02-05-2015 02:30:00 4.6 C 6.09 g/m*3 4.6 C 0 km/h
32 02-05-2015 02:35:00 4.6 C 6.09 g/m*3 4.6 C 0 km/h
33 02-05-2015 02:40:00 4.6 C 6.15 g/m*3 4.6 C 0 km/h
34 02-05-2015 02:45:00 4.4 C 6.07 g/m*3 4.4 C 0 km/h
35 02-05-2015 02:50:00 4.4 C 6.07 g/m*3 4.4 C 0 km/h
36 02-05-2015 02:55:00 4.4 C 6.07 g/m*3 4.4 C 0 km/h
37 02-05-2015 03:00:00 4.4 C 6.07 g/m*3 4.4 C 0 km/h
38 02-05-2015 03:05:00 4.4 C 6.07 g/m*3 4.4 C 0 km/h
39 02-05-2015 03:10:00 4.3 C 6.03 g/m*3 4.3 C 0 km/h
40 02-05-2015 03:15:00 4.3 C 6.1 g/m*3 4.3 C 0 km/h
41 02-05-2015 03:20:00 4.3 C 6.1 g/m*3 4.3 C 0 km/h
42 02-05-2015 03:25:00 4.3 C 6.1 g/m*3 4.3 C 0 km/h
43 02-05-2015 03:30:00 4.2 C 5.99 g/m*3 4.2 C 0 km/h
44 02-05-2015 03:35:00 4.2 C 5.99 g/m*3 4.2 C 0 km/h
45 02-05-2015 03:40:00 4.1 C 5.95 g/m*3 4.1 C 0 km/h
46 02-05-2015 03:45:00 4 C 5.91 g/m*3 4 C 0 km/h
47 02-05-2015 03:50:00 3.9 C 5.94 g/m*3 3.9 C 0 km/h
48 02-05-2015 03:55:00 3.8 C 5.9 g/m*3 3.8 C 0 km/h
49 02-05-2015 04:00:00 3.8 C 5.9 g/m*3 3.8 C 0 km/h
50 02-05-2015 04:05:00 3.8 C 5.9 g/m*3 3.8 C 0 km/h
Sensor: Nr:Datum:Temp:Abs-Feuchte:Windchill:Wind:
Aussen-T/F 51 02-05-2015 04:10:00 3.7 C 5.86 g/m*3 3.7 C 0 km/h
52 02-05-2015 04:15:00 3.7 C 5.86 g/m*3 3.7 C 0 km/h
53 02-05-2015 04:20:00 3.7 C 5.86 g/m*3 3.7 C 0 km/h
54 02-05-2015 04:25:00 3.7 C 5.86 g/m*3 3.7 C 0 km/h
55 02-05-2015 04:30:00 3.6 C 5.82 g/m*3 3.6 C 0 km/h
56 02-05-2015 04:35:00 3.6 C 5.82 g/m*3 3.6 C 1.6 km/h
57 02-05-2015 04:40:00 3.5 C 5.78 g/m*3 3.5 C 0 km/h
58 02-05-2015 04:45:00 3.5 C 5.78 g/m*3 3.5 C 0 km/h
59 02-05-2015 04:50:00 3.5 C 5.78 g/m*3 3.5 C 0 km/h
60 02-05-2015 04:55:00 3.4 C 5.74 g/m*3 3.4 C 0 km/h
61 02-05-2015 05:00:00 3.3 C 5.7 g/m*3 3.3 C 0 km/h
62 02-05-2015 05:05:00 3.2 C 5.66 g/m*3 3.2 C 0 km/h
63 02-05-2015 05:10:00 3.1 C 5.63 g/m*3 3.1 C 0 km/h
64 02-05-2015 05:15:00 3 C 5.59 g/m*3 3 C 0 km/h
65 02-05-2015 05:20:00 2.9 C 5.55 g/m*3 2.9 C 0 km/h
66 02-05-2015 05:25:00 2.8 C 5.51 g/m*3 2.8 C 0 km/h
67 02-05-2015 05:30:00 2.8 C 5.51 g/m*3 2.8 C 0 km/h
68 02-05-2015 05:35:00 2.8 C 5.51 g/m*3 2.8 C 0 km/h
69 02-05-2015 05:40:00 2.8 C 5.57 g/m*3 2.8 C 3.2 km/h
70 02-05-2015 05:45:00 2.8 C 5.57 g/m*3 2.8 C 0 km/h
71 02-05-2015 05:50:00 2.8 C 5.51 g/m*3 2.8 C 0 km/h
72 02-05-2015 05:55:00 2.8 C 5.57 g/m*3 2.8 C 0 km/h
73 02-05-2015 06:00:00 2.8 C 5.57 g/m*3 2.8 C 0 km/h
74 02-05-2015 06:05:00 2.8 C 5.57 g/m*3 2.8 C 0 km/h
75 02-05-2015 06:10:00 2.9 C 5.61 g/m*3 2.9 C 0 km/h
Sensor: Nr:Datum:Temp:Abs-Feuchte:Windchill:Wind:
Aussen-T/F 76 02-05-2015 06:15:00 2.9 C 5.61 g/m*3 2.9 C 0 km/h
77 02-05-2015 06:20:00 2.9 C 5.61 g/m*3 2.9 C 0 km/h
78 02-05-2015 06:25:00 2.9 C 5.61 g/m*3 2.9 C 0 km/h
79 02-05-2015 06:30:00 2.9 C 5.61 g/m*3 2.9 C 0 km/h
80 02-05-2015 06:35:00 2.9 C 5.61 g/m*3 2.9 C 0 km/h
81 02-05-2015 06:40:00 3 C 5.65 g/m*3 3 C 0 km/h
82 02-05-2015 06:45:00 3.1 C 5.69 g/m*3 3.1 C 0 km/h
83 02-05-2015 06:50:00 3.2 C 5.72 g/m*3 3.2 C 3.2 km/h
84 02-05-2015 06:55:00 3.2 C 5.72 g/m*3 3.2 C 1.6 km/h
85 02-05-2015 07:00:00 3.3 C 5.76 g/m*3 3.3 C 0 km/h
86 02-05-2015 07:05:00 3.4 C 5.8 g/m*3 3.4 C 1.6 km/h
87 02-05-2015 07:10:00 3.4 C 5.8 g/m*3 3.4 C 3.2 km/h
88 02-05-2015 07:15:00 3.5 C 5.84 g/m*3 3.5 C 3.2 km/h
89 02-05-2015 07:20:00 3.6 C 5.88 g/m*3 3.6 C 4.8 km/h
90 02-05-2015 07:25:00 3.7 C 5.92 g/m*3 3.7 C 3.2 km/h
91 02-05-2015 07:30:00 3.7 C 5.92 g/m*3 3.7 C 4.8 km/h
92 02-05-2015 07:35:00 3.8 C 5.96 g/m*3 3.8 C 3.2 km/h
93 02-05-2015 07:40:00 3.8 C 6.02 g/m*3 3.8 C 4.8 km/h
94 02-05-2015 07:45:00 3.9 C 6.06 g/m*3 3.9 C 3.2 km/h
95 02-05-2015 07:50:00 4.1 C 6.14 g/m*3 4.1 C 3.2 km/h
96 02-05-2015 07:55:00 4.1 C 6.14 g/m*3 4.1 C 4.8 km/h
97 02-05-2015 08:00:00 4.2 C 6.19 g/m*3 4.2 C 1.6 km/h
98 02-05-2015 08:05:00 4.3 C 6.23 g/m*3 4.3 C 1.6 km/h
99 02-05-2015 08:10:00 4.3 C 6.23 g/m*3 4.3 C 3.2 km/h
100 02-05-2015 08:15:00 4.5 C 6.31 g/m*3 4.5 C 1.6 km/h
Sensor: Nr:Datum:Temp:Abs-Feuchte:Windchill:Wind:
Aussen-T/F 101 02-05-2015 08:20:00 4.6 C 6.35 g/m*3 4.6 C 1.6 km/h
102 02-05-2015 08:25:00 4.7 C 6.39 g/m*3 4.7 C 0 km/h
103 02-05-2015 08:30:00 4.8 C 6.44 g/m*3 4.8 C 0 km/h
104 02-05-2015 08:35:00 4.9 C 6.48 g/m*3 4.9 C 0 km/h
105 02-05-2015 08:40:00 4.9 C 6.48 g/m*3 4.9 C 0 km/h
106 02-05-2015 08:45:00 5.1 C 6.57 g/m*3 5.1 C 0 km/h
107 02-05-2015 08:50:00 5.2 C 6.61 g/m*3 5.2 C 3.2 km/h
108 02-05-2015 08:55:00 5.3 C 6.65 g/m*3 5.3 C 0 km/h
109 02-05-2015 09:00:00 5.5 C 6.74 g/m*3 5.5 C 1.6 km/h
110 02-05-2015 09:05:00 5.7 C 6.83 g/m*3 5.7 C 0 km/h
111 02-05-2015 09:10:00 5.8 C 6.88 g/m*3 5.8 C 1.6 km/h
112 02-05-2015 09:15:00 6 C 6.9 g/m*3 6 C 0 km/h
113 02-05-2015 09:20:00 6.1 C 6.94 g/m*3 6.1 C 1.6 km/h
114 02-05-2015 09:25:00 6.3 C 7.03 g/m*3 6.3 C 0 km/h
115 02-05-2015 09:30:00 6.5 C 7.05 g/m*3 6.5 C 1.6 km/h
116 02-05-2015 09:35:00 6.7 C 7.07 g/m*3 6.7 C 3.2 km/h
117 02-05-2015 09:40:00 7 C 7.21 g/m*3 7 C 1.6 km/h
118 02-05-2015 09:45:00 7.3 C 7.27 g/m*3 7.3 C 3.2 km/h
119 02-05-2015 09:50:00 7.6 C 7.25 g/m*3 7.6 C 1.6 km/h
120 02-05-2015 09:55:00 7.7 C 7.14 g/m*3 7.7 C 3.2 km/h
121 02-05-2015 10:00:00 7.8 C 7.1 g/m*3 7.8 C 0 km/h
122 02-05-2015 10:05:00 8 C 7.19 g/m*3 8 C 1.6 km/h
123 02-05-2015 10:10:00 8.1 C 7.16 g/m*3 8.1 C 0 km/h
124 02-05-2015 10:15:00 8.2 C 7.2 g/m*3 8.2 C 3.2 km/h
125 02-05-2015 10:20:00 8.3 C 7.25 g/m*3 8.3 C 1.6 km/h
Sensor: Nr:Datum:Temp:Abs-Feuchte:Windchill:Wind:
Aussen-T/F 126 02-05-2015 10:25:00 8.4 C 7.13 g/m*3 8.4 C 1.6 km/h
127 02-05-2015 10:30:00 8.5 C 7.09 g/m*3 8.5 C 1.6 km/h
128 02-05-2015 10:35:00 8.6 C 7.05 g/m*3 8.6 C 0 km/h
129 02-05-2015 10:40:00 8.8 C 7.31 g/m*3 8.8 C 3.2 km/h
130 02-05-2015 10:45:00 9.2 C 7.5 g/m*3 9.2 C 0 km/h
131 02-05-2015 10:50:00 9.6 C 7.33 g/m*3 9.6 C 4.8 km/h
132 02-05-2015 10:55:00 9.9 C 7.28 g/m*3 9.9 C 3.2 km/h
133 02-05-2015 11:00:00 10.3 C 7.37 g/m*3 10.3 C 1.6 km/h
134 02-05-2015 11:05:00 10.8 C 7.61 g/m*3 10.8 C 3.2 km/h
135 02-05-2015 11:10:00 11.3 C 7.55 g/m*3 11.3 C 1.6 km/h
136 02-05-2015 11:15:00 11.6 C 7.69 g/m*3 11.6 C 1.6 km/h
137 02-05-2015 11:20:00 11.8 C 7.68 g/m*3 11.8 C 0 km/h
138 02-05-2015 11:25:00 12 C 7.89 g/m*3 12 C 1.6 km/h
139 02-05-2015 11:30:00 12.3 C 7.93 g/m*3 12.3 C 4.8 km/h
140 02-05-2015 11:35:00 12.5 C 7.92 g/m*3 12.5 C 1.6 km/h
141 02-05-2015 11:40:00 12.7 C 8.01 g/m*3 12.7 C 1.6 km/h
142 02-05-2015 11:45:00 12.9 C 7.89 g/m*3 12.9 C 3.2 km/h
143 02-05-2015 11:50:00 13.1 C 7.87 g/m*3 13.1 C 0 km/h
144 02-05-2015 11:55:00 13.2 C 8.04 g/m*3 13.2 C 3.2 km/h
145 02-05-2015 12:00:00 13.4 C 7.9 g/m*3 13.4 C 3.2 km/h
146 02-05-2015 12:05:00 13.6 C 7.53 g/m*3 13.6 C 1.6 km/h
147 02-05-2015 12:10:00 13.7 C 7.46 g/m*3 13.7 C 3.2 km/h
148 02-05-2015 12:15:00 13.9 C 7.67 g/m*3 13.9 C 1.6 km/h
149 02-05-2015 12:20:00 14 C 7.6 g/m*3 14 C 6.4 km/h
150 02-05-2015 12:25:00 14.2 C 7.94 g/m*3 14.2 C 6.4 km/h
Sensor: Nr:Datum:Temp:Abs-Feuchte:Windchill:Wind:
Aussen-T/F 151 02-05-2015 12:30:00 14.6 C 7.76 g/m*3 14.6 C 4.8 km/h
152 02-05-2015 12:35:00 14.7 C 7.43 g/m*3 14.7 C 6.4 km/h
153 02-05-2015 12:40:00 14.7 C 7.68 g/m*3 14.7 C 4.8 km/h
154 02-05-2015 12:45:00 14.8 C 7.6 g/m*3 14.8 C 1.6 km/h
155 02-05-2015 12:50:00 14.9 C 7.65 g/m*3 14.9 C 3.2 km/h
156 02-05-2015 12:55:00 15 C 7.44 g/m*3 15 C 3.2 km/h
157 02-05-2015 13:00:00 15.2 C 7.79 g/m*3 15.2 C 3.2 km/h
158 02-05-2015 13:05:00 15.4 C 7.75 g/m*3 15.4 C 4.8 km/h
159 02-05-2015 13:10:00 15.6 C 7.31 g/m*3 15.6 C 4.8 km/h
160 02-05-2015 13:15:00 15.6 C 7.31 g/m*3 15.6 C 6.4 km/h
161 02-05-2015 13:20:00 15.6 C 7.45 g/m*3 15.6 C 4.8 km/h
162 02-05-2015 13:25:00 15.8 C 7.27 g/m*3 15.8 C 6.4 km/h
163 02-05-2015 13:30:00 15.9 C 7.04 g/m*3 15.9 C 4.8 km/h
164 02-05-2015 13:35:00 16.1 C 7.81 g/m*3 16.1 C 1.6 km/h
165 02-05-2015 13:40:00 16.4 C 7.96 g/m*3 16.4 C 4.8 km/h
166 02-05-2015 13:45:00 16.6 C 7.63 g/m*3 16.6 C 6.4 km/h
167 02-05-2015 13:50:00 16.4 C 6.98 g/m*3 16.4 C 6.4 km/h
168 02-05-2015 13:55:00 16.2 C 7.03 g/m*3 16.2 C 4.8 km/h
169 02-05-2015 14:00:00 16.3 C 7.08 g/m*3 16.3 C 8.1 km/h
170 02-05-2015 14:05:00 16.2 C 7.03 g/m*3 16.2 C 9.7 km/h
171 02-05-2015 14:10:00 16.2 C 6.9 g/m*3 16.2 C 3.2 km/h
172 02-05-2015 14:15:00 16.1 C 7.54 g/m*3 16.1 C 6.4 km/h
173 02-05-2015 14:20:00 16.3 C 7.21 g/m*3 16.3 C 6.4 km/h
174 02-05-2015 14:25:00 16.3 C 7.35 g/m*3 16.3 C 6.4 km/h
175 02-05-2015 14:30:00 16.5 C 7.16 g/m*3 16.5 C 4.8 km/h
Sensor: Nr:Datum:Temp:Abs-Feuchte:Windchill:Wind:
Aussen-T/F 176 02-05-2015 14:35:00 16.7 C 7.25 g/m*3 16.7 C 6.4 km/h
177 02-05-2015 14:40:00 16.9 C 7.48 g/m*3 16.9 C 8.1 km/h
178 02-05-2015 14:45:00 17.2 C 7.61 g/m*3 17.2 C 8.1 km/h
179 02-05-2015 14:50:00 17.3 C 7.51 g/m*3 17.3 C 6.4 km/h
180 02-05-2015 14:55:00 17.3 C 7.37 g/m*3 17.3 C 6.4 km/h
181 02-05-2015 15:00:00 17.5 C 7.6 g/m*3 17.5 C 4.8 km/h
182 02-05-2015 15:05:00 17.4 C 7.11 g/m*3 17.4 C 6.4 km/h
183 02-05-2015 15:10:00 17.4 C 6.97 g/m*3 17.4 C 3.2 km/h
184 02-05-2015 15:15:00 17.5 C 7.31 g/m*3 17.5 C 6.4 km/h
185 02-05-2015 15:20:00 17.6 C 7.35 g/m*3 17.6 C 4.8 km/h
186 02-05-2015 15:25:00 17.7 C 7.24 g/m*3 17.7 C 4.8 km/h
187 02-05-2015 15:30:00 17.5 C 7.45 g/m*3 17.5 C 4.8 km/h
188 02-05-2015 15:35:00 17.3 C 7.22 g/m*3 17.3 C 4.8 km/h
189 02-05-2015 15:40:00 17.3 C 7.07 g/m*3 17.3 C 3.2 km/h
190 02-05-2015 15:45:00 17.4 C 7.41 g/m*3 17.4 C 3.2 km/h
191 02-05-2015 15:50:00 17.6 C 7.2 g/m*3 17.6 C 9.7 km/h
192 02-05-2015 15:55:00 17.4 C 7.26 g/m*3 17.4 C 3.2 km/h
193 02-05-2015 16:00:00 17.2 C 7.03 g/m*3 17.2 C 4.8 km/h
194 02-05-2015 16:05:00 17.1 C 6.99 g/m*3 17.1 C 1.6 km/h
195 02-05-2015 16:10:00 17 C 6.95 g/m*3 17 C 1.6 km/h
196 02-05-2015 16:15:00 17 C 7.52 g/m*3 17 C 3.2 km/h
197 02-05-2015 16:20:00 17 C 7.52 g/m*3 17 C 1.6 km/h
198 02-05-2015 16:25:00 17 C 6.8 g/m*3 17 C 0 km/h
199 02-05-2015 16:30:00 17 C 7.67 g/m*3 17 C 3.2 km/h
200 02-05-2015 16:35:00 16.9 C 7.19 g/m*3 16.9 C 1.6 km/h
Sensor: Nr:Datum:Temp:Abs-Feuchte:Windchill:Wind:
Aussen-T/F 201 02-05-2015 16:40:00 16.9 C 7.34 g/m*3 16.9 C 3.2 km/h
202 02-05-2015 16:45:00 16.8 C 7.43 g/m*3 16.8 C 4.8 km/h
203 02-05-2015 16:50:00 16.8 C 7.01 g/m*3 16.8 C 4.8 km/h
204 02-05-2015 16:55:00 16.6 C 7.2 g/m*3 16.6 C 4.8 km/h
205 02-05-2015 17:00:00 16.4 C 6.98 g/m*3 16.4 C 6.4 km/h
206 02-05-2015 17:05:00 16.4 C 7.12 g/m*3 16.4 C 4.8 km/h
207 02-05-2015 17:10:00 16.4 C 6.98 g/m*3 16.4 C 3.2 km/h
208 02-05-2015 17:15:00 16.4 C 7.12 g/m*3 16.4 C 0 km/h
209 02-05-2015 17:20:00 16.5 C 7.44 g/m*3 16.5 C 1.6 km/h
210 02-05-2015 17:25:00 16.6 C 7.35 g/m*3 16.6 C 1.6 km/h
211 02-05-2015 17:30:00 16.6 C 7.35 g/m*3 16.6 C 3.2 km/h
212 02-05-2015 17:35:00 16.5 C 7.44 g/m*3 16.5 C 4.8 km/h
213 02-05-2015 17:40:00 16.4 C 7.54 g/m*3 16.4 C 4.8 km/h
214 02-05-2015 17:45:00 16.4 C 7.54 g/m*3 16.4 C 1.6 km/h
215 02-05-2015 17:50:00 16.4 C 7.68 g/m*3 16.4 C 1.6 km/h
216 02-05-2015 17:55:00 16.6 C 7.63 g/m*3 16.6 C 3.2 km/h
217 02-05-2015 18:00:00 16.4 C 7.4 g/m*3 16.4 C 4.8 km/h
218 02-05-2015 18:05:00 16.4 C 7.96 g/m*3 16.4 C 4.8 km/h
219 02-05-2015 18:10:00 16.3 C 7.63 g/m*3 16.3 C 9.7 km/h
220 02-05-2015 18:15:00 16.3 C 7.91 g/m*3 16.3 C 3.2 km/h
221 02-05-2015 18:20:00 16.2 C 7.45 g/m*3 16.2 C 4.8 km/h
222 02-05-2015 18:25:00 16.2 C 7.86 g/m*3 16.2 C 1.6 km/h
223 02-05-2015 18:30:00 16 C 7.63 g/m*3 16 C 1.6 km/h
224 02-05-2015 18:35:00 15.9 C 7.72 g/m*3 15.9 C 1.6 km/h
225 02-05-2015 18:40:00 15.8 C 7.67 g/m*3 15.8 C 4.8 km/h
Sensor: Nr:Datum:Temp:Abs-Feuchte:Windchill:Wind:
Aussen-T/F 226 02-05-2015 18:45:00 15.8 C 7.67 g/m*3 15.8 C 0 km/h
227 02-05-2015 18:50:00 15.7 C 8.43 g/m*3 15.7 C 0 km/h
228 02-05-2015 18:55:00 15.6 C 8.51 g/m*3 15.6 C 0 km/h
229 02-05-2015 19:00:00 15.4 C 7.62 g/m*3 15.4 C 0 km/h
230 02-05-2015 19:05:00 15.4 C 8.93 g/m*3 15.4 C 0 km/h
231 02-05-2015 19:10:00 15.2 C 8.31 g/m*3 15.2 C 1.6 km/h
232 02-05-2015 19:15:00 15.1 C 8.9 g/m*3 15.1 C 1.6 km/h
233 02-05-2015 19:20:00 15.1 C 9.16 g/m*3 15.1 C 0 km/h
234 02-05-2015 19:25:00 14.8 C 9.12 g/m*3 14.8 C 0 km/h
235 02-05-2015 19:30:00 14.7 C 9.32 g/m*3 14.7 C 0 km/h
236 02-05-2015 19:35:00 14.5 C 8.95 g/m*3 14.5 C 0 km/h
237 02-05-2015 19:40:00 14.3 C 9.21 g/m*3 14.3 C 0 km/h
238 02-05-2015 19:45:00 14.1 C 9.1 g/m*3 14.1 C 0 km/h
239 02-05-2015 19:50:00 14 C 9.29 g/m*3 14 C 0 km/h
240 02-05-2015 19:55:00 13.9 C 9.35 g/m*3 13.9 C 1.6 km/h
241 02-05-2015 20:00:00 13.8 C 9.17 g/m*3 13.8 C 0 km/h
242 02-05-2015 20:05:00 13.7 C 9.24 g/m*3 13.7 C 0 km/h
243 02-05-2015 20:10:00 13.6 C 9.18 g/m*3 13.6 C 0 km/h
244 02-05-2015 20:15:00 13.4 C 9.07 g/m*3 13.4 C 0 km/h
245 02-05-2015 20:20:00 13.2 C 9.07 g/m*3 13.2 C 0 km/h
246 02-05-2015 20:25:00 12.9 C 8.9 g/m*3 12.9 C 0 km/h
247 02-05-2015 20:30:00 12.7 C 8.91 g/m*3 12.7 C 1.6 km/h
248 02-05-2015 20:35:00 12.4 C 8.74 g/m*3 12.4 C 1.6 km/h
249 02-05-2015 20:40:00 12.2 C 8.63 g/m*3 12.2 C 1.6 km/h
250 02-05-2015 20:45:00 11.9 C 8.58 g/m*3 11.9 C 3.2 km/h
Sensor: Nr:Datum:Temp:Abs-Feuchte:Windchill:Wind:
Aussen-T/F 251 02-05-2015 20:50:00 11.7 C 8.58 g/m*3 11.7 C 1.6 km/h
252 02-05-2015 20:55:00 11.5 C 8.57 g/m*3 11.5 C 3.2 km/h
253 02-05-2015 21:00:00 11.3 C 8.36 g/m*3 11.3 C 3.2 km/h
254 02-05-2015 21:05:00 11.2 C 8.31 g/m*3 11.2 C 3.2 km/h
255 02-05-2015 21:10:00 11 C 8.21 g/m*3 11 C 3.2 km/h
256 02-05-2015 21:15:00 10.9 C 8.16 g/m*3 10.9 C 3.2 km/h
257 02-05-2015 21:20:00 10.8 C 8.2 g/m*3 10.8 C 3.2 km/h
258 02-05-2015 21:25:00 10.7 C 8.25 g/m*3 10.7 C 3.2 km/h
259 02-05-2015 21:30:00 10.6 C 8.3 g/m*3 10.6 C 3.2 km/h
260 02-05-2015 21:35:00 10.6 C 8.3 g/m*3 10.6 C 3.2 km/h
261 02-05-2015 21:40:00 10.5 C 8.24 g/m*3 10.5 C 3.2 km/h
262 02-05-2015 21:45:00 10.5 C 8.15 g/m*3 10.5 C 4.8 km/h
263 02-05-2015 21:50:00 10.4 C 8.19 g/m*3 10.4 C 3.2 km/h
264 02-05-2015 21:55:00 10.4 C 8.19 g/m*3 10.4 C 4.8 km/h
265 02-05-2015 22:00:00 10.3 C 8.14 g/m*3 10.3 C 4.8 km/h
266 02-05-2015 22:05:00 10.3 C 8.14 g/m*3 10.3 C 4.8 km/h
267 02-05-2015 22:10:00 10.2 C 8.09 g/m*3 10.2 C 3.2 km/h
268 02-05-2015 22:15:00 10.2 C 8.09 g/m*3 10.2 C 3.2 km/h
269 02-05-2015 22:20:00 10.2 C 8.09 g/m*3 10.2 C 3.2 km/h
270 02-05-2015 22:25:00 10.2 C 8.09 g/m*3 10.2 C 3.2 km/h
271 02-05-2015 22:30:00 10.2 C 8.09 g/m*3 10.2 C 3.2 km/h
272 02-05-2015 22:35:00 10.2 C 8.09 g/m*3 10.2 C 0 km/h
273 02-05-2015 22:40:00 10.2 C 8.09 g/m*3 10.2 C 0 km/h
274 02-05-2015 22:45:00 10.2 C 8.09 g/m*3 10.2 C 0 km/h
275 02-05-2015 22:50:00 10.2 C 8.09 g/m*3 10.2 C 0 km/h
Sensor: Nr:Datum:Temp:Abs-Feuchte:Windchill:Wind:
Aussen-T/F 276 02-05-2015 22:55:00 10.1 C 8.13 g/m*3 10.1 C 0 km/h
277 02-05-2015 23:00:00 10 C 8.17 g/m*3 10 C 0 km/h
278 02-05-2015 23:05:00 10 C 8.17 g/m*3 10 C 0 km/h
279 02-05-2015 23:10:00 9.9 C 8.12 g/m*3 9.9 C 0 km/h
280 02-05-2015 23:15:00 10 C 8.27 g/m*3 10 C 0 km/h
281 02-05-2015 23:20:00 10 C 8.27 g/m*3 10 C 0 km/h
282 02-05-2015 23:25:00 10 C 8.27 g/m*3 10 C 0 km/h
283 02-05-2015 23:30:00 10.1 C 8.32 g/m*3 10.1 C 0 km/h
284 02-05-2015 23:35:00 10.1 C 8.32 g/m*3 10.1 C 0 km/h
285 02-05-2015 23:40:00 10.2 C 8.37 g/m*3 10.2 C 0 km/h
286 02-05-2015 23:45:00 10.2 C 8.37 g/m*3 10.2 C 0 km/h
287 02-05-2015 23:50:00 10.3 C 8.43 g/m*3 10.3 C 0 km/h
288 02-05-2015 23:55:00 10.3 C 8.43 g/m*3 10.3 C 0 km/h

Legende:
   Min
   Max


Maximal/Minimal-Werte vom 02.05.2015 - 02.05.2015

Sensor Min Max Avg
Temp
(Aussen-T/F)
2.8 °C
02-05-2015  05:25:00
17.7 °C
02-05-2015  15:25:00
9.89 °C
Abs-Feuchte
(Aussen-T/F)
5.51 g/m*3
02-05-2015  05:25:00
9.35 g/m*3
02-05-2015  19:55:00
7.09 g/m*3
Windchill
(Aussen-T/F)
2.8 C
02-05-2015  05:25:00
17.7 C
02-05-2015  15:25:00
9.86 C

Die Daten stammen von einer Davis Vantage Pro 2 Wetter-Station und werden unter Linux mit der Software wview2wettercgi und aufbereitet. Alle Angaben erfolgen ohne Gewähr für ihre Vollständigkeit oder Richtigkeit.
Kontakt: Rainer Krienke krienke@uni-koblenz.de . Meine Webseiten an der Uni Koblenz oder privat.
Version: $Revision: 0.78 $